Airfield :
LOGIN :

Register | Disclaimer

   EN    FR    IT 

 










Legend :    VFR   Marginal VFR   IFR   Intensive IFR   Very Intensive IFR
Visi :
Ceiling :
>= 8 km
>= 3000ft
5 to 8 km
1000 to 3000 ft
1500m to 5 km
500 to 1000 ft
800 to 1500m
200 to 500 ft
< 800m
< 200 ft
Symbols :   Thunderstorms  Fog  Heavy snow  Heavy precipitations  Wind > 20 kt
SIGMETs :     Misc.  Thunderstorms  Icing  Turbulence  Mountain Waves  Volcanic Ashes







- Airport Elevation : 505 ft
- IATA code : SXB
- Download approach charts


LFST - Strasbourg

CURRENT METAR :
  • 200630Z AUTO 17004KT 140V210 CAVOK 20/17 Q1014 TEMPO FEW035CB

EXPIRED METARs :
  • 200600Z AUTO VRB03KT 9999 FEW052 SCT078 19/17 Q1014 TEMPO FEW035CB
  • 200530Z AUTO 18003KT 140V210 9999 FEW043 OVC054 18/17 Q1013 TEMPO FEW035CB
  • 200500Z AUTO 19006KT 9999 BKN045 OVC058 18/16 Q1013 BECMG FEW030CB
  • 200430Z AUTO VRB03KT 9999 BKN047 OVC056 18/16 Q1013 BECMG FEW030CB
  • 200400Z AUTO VRB03KT 9999 BKN050 OVC230 18/16 Q1013 TEMPO SHRA FEW050CB BKN060

TAF TAF LFST
Valid from the 20 at 06:00 until the 21 at 06:00 UTC


200500Z 2006/2106 VRB03KT 9999 BKN050
TEMPO 2006/2022 18010KT -SHRA FEW035CB
PROB40
TEMPO 2010/2018 30010G20KT SHRA BKN035CB
No reported NOTAMs for that airfield.



MET'MAP, your aeronautical weather chart ! - Copyright ORBIFLY December 2007 - Disclaimer

ORBIFLY MET'MAP TEAM :

Programming & Development : Alexandra Zaïnal
Concept & Development : Baudouin d'Aumeries
Co-Development & Prog : Marc-Olivier Méhu
Technical & hardware support : Manuel Goepfert

Contact : metmap@orbifly.com




SOURCES & CREDITS :

   NOAA